createdAt,value
2022-11-10T00:00:17.935Z,0.95
2022-11-10T00:02:44.249Z,0.90
2022-11-10T00:05:11.046Z,0.60
2022-11-10T00:07:37.712Z,0.77
2022-11-10T00:10:04.892Z,0.88
2022-11-10T00:12:31.666Z,1.05
2022-11-10T00:15:16.556Z,1.10
2022-11-10T00:17:43.083Z,1.10
2022-11-10T00:20:10.092Z,1.08
2022-11-10T00:22:37.144Z,0.80
2022-11-10T00:25:03.900Z,1.02
2022-11-10T00:27:31.519Z,0.85
2022-11-10T00:29:57.898Z,1.10
2022-11-10T00:32:24.198Z,1.33
2022-11-10T00:34:50.520Z,1.10
2022-11-10T00:37:17.293Z,0.98
2022-11-10T00:39:43.820Z,0.88
2022-11-10T00:42:10.380Z,1.02
2022-11-10T00:44:37.158Z,1.10
2022-11-10T00:47:03.571Z,1.40
2022-11-10T00:49:29.868Z,1.33
2022-11-10T00:51:56.390Z,1.73
2022-11-10T00:54:22.699Z,1.88
2022-11-10T00:56:49.112Z,1.60
2022-11-10T00:59:15.600Z,1.77
2022-11-10T01:01:41.897Z,1.10
2022-11-10T01:04:08.273Z,1.30
2022-11-10T01:06:34.780Z,1.45
2022-11-10T01:09:01.171Z,1.70
2022-11-10T01:11:28.074Z,1.40
2022-11-10T01:13:55.187Z,1.33
2022-11-10T01:16:25.744Z,1.20
2022-11-10T01:18:53.709Z,1.40
2022-11-10T01:21:21.013Z,0.85
2022-11-10T01:23:47.551Z,1.50
2022-11-10T01:26:14.290Z,1.13
2022-11-10T01:28:40.629Z,1.50
2022-11-10T01:31:11.430Z,1.23
2022-11-10T01:33:37.751Z,1.10
2022-11-10T01:36:04.760Z,1.45
2022-11-10T01:38:32.444Z,1.05
2022-11-10T01:40:59.171Z,1.00
2022-11-10T01:43:26.511Z,1.10
2022-11-10T01:45:54.141Z,2.03
2022-11-10T01:48:35.654Z,1.27
2022-11-10T01:51:04.234Z,1.10
2022-11-10T01:53:32.336Z,0.90
2022-11-10T01:55:58.930Z,1.13
2022-11-10T01:58:28.157Z,1.25
2022-11-10T02:00:54.766Z,1.20
2022-11-10T02:03:21.286Z,1.35
2022-11-10T02:05:49.013Z,0.90
2022-11-10T02:08:15.853Z,0.90
2022-11-10T02:10:42.247Z,1.25
2022-11-10T02:13:08.867Z,0.80
2022-11-10T02:15:35.210Z,1.05
2022-11-10T02:18:01.640Z,1.00
2022-11-10T02:20:27.960Z,1.10
2022-11-10T02:22:54.370Z,1.52
2022-11-10T02:25:22.578Z,0.90
2022-11-10T02:27:48.929Z,1.40
2022-11-10T02:30:15.646Z,1.08
2022-11-10T02:32:42.107Z,1.00
2022-11-10T02:35:08.660Z,1.00
2022-11-10T02:37:35.093Z,1.20
2022-11-10T02:40:01.782Z,1.20
2022-11-10T02:42:28.056Z,0.93
2022-11-10T02:44:54.471Z,1.10
2022-11-10T02:47:20.804Z,0.68
2022-11-10T02:49:47.110Z,0.95
2022-11-10T02:52:13.538Z,0.90
2022-11-10T02:54:40.035Z,0.80
2022-11-10T02:57:06.402Z,1.30
2022-11-10T02:59:32.790Z,1.13
2022-11-10T03:01:59.126Z,1.20
2022-11-10T03:04:25.479Z,0.82
2022-11-10T03:06:51.789Z,0.80
2022-11-10T03:09:18.138Z,0.98
2022-11-10T03:11:44.502Z,1.02
2022-11-10T03:14:10.835Z,0.75
2022-11-10T03:16:37.245Z,1.08
2022-11-10T03:19:03.644Z,2.03
2022-11-10T03:21:29.938Z,1.33
2022-11-10T03:23:56.277Z,1.20
2022-11-10T03:26:22.713Z,1.58
2022-11-10T03:28:48.991Z,1.30
2022-11-10T03:31:15.377Z,1.33
2022-11-10T03:33:41.751Z,0.90
2022-11-10T03:36:08.078Z,1.00
2022-11-10T03:38:34.517Z,1.00
2022-11-10T03:43:47.656Z,1.25
2022-11-10T03:46:13.986Z,1.25
2022-11-10T03:48:40.313Z,1.30
2022-11-10T03:51:06.668Z,1.25
2022-11-10T03:53:32.965Z,1.45
2022-11-10T03:56:02.858Z,1.40
2022-11-10T03:58:29.254Z,1.05
2022-11-10T04:00:55.807Z,1.30
2022-11-10T04:03:22.853Z,1.25
2022-11-10T04:06:08.217Z,1.00
2022-11-10T04:08:53.014Z,1.77
2022-11-10T04:11:38.117Z,1.30
2022-11-10T04:14:23.395Z,1.92
2022-11-10T04:16:49.716Z,1.30
2022-11-10T04:19:16.072Z,1.45
2022-11-10T04:21:42.463Z,1.27
2022-11-10T04:24:09.157Z,1.35
2022-11-10T04:26:38.636Z,1.40
2022-11-10T04:29:06.487Z,1.58
2022-11-10T04:31:33.617Z,1.13
2022-11-10T04:34:00.103Z,1.08
2022-11-10T04:36:28.121Z,2.00
2022-11-10T04:38:57.799Z,1.20
2022-11-10T04:41:25.024Z,1.38
2022-11-10T04:43:51.764Z,1.95
2022-11-10T04:46:29.828Z,1.50
2022-11-10T04:48:57.055Z,1.20
2022-11-10T04:51:25.069Z,1.13
2022-11-10T04:53:51.528Z,1.42
2022-11-10T04:56:18.904Z,1.35
2022-11-10T04:58:45.341Z,1.50
2022-11-10T05:01:12.915Z,1.38
2022-11-10T05:03:39.332Z,1.00
2022-11-10T05:06:05.757Z,1.45
2022-11-10T05:08:32.280Z,1.48
2022-11-10T05:10:58.642Z,1.70
2022-11-10T05:13:25.217Z,1.88
2022-11-10T05:15:52.497Z,1.40
2022-11-10T05:18:18.885Z,1.25
2022-11-10T05:20:45.394Z,1.20
2022-11-10T05:23:30.337Z,1.13
2022-11-10T05:25:56.726Z,1.50
2022-11-10T05:28:23.157Z,1.20
2022-11-10T05:30:49.698Z,1.33
2022-11-10T05:33:16.024Z,1.40
2022-11-10T05:35:42.535Z,1.63
2022-11-10T05:38:09.112Z,1.33
2022-11-10T05:40:35.683Z,2.03
2022-11-10T05:43:02.106Z,1.55
2022-11-10T05:45:29.412Z,1.20
2022-11-10T05:47:56.268Z,1.30
2022-11-10T05:50:22.852Z,1.50
2022-11-10T05:52:51.204Z,1.50
2022-11-10T05:55:18.955Z,1.80
2022-11-10T05:57:45.998Z,1.90
2022-11-10T06:00:17.176Z,1.90
2022-11-10T06:02:43.886Z,1.90
2022-11-10T06:05:10.997Z,2.55
2022-11-10T06:07:40.397Z,1.60
2022-11-10T06:10:07.157Z,1.48
2022-11-10T06:12:33.633Z,1.90
2022-11-10T06:15:00.222Z,2.20
2022-11-10T06:17:26.750Z,2.30
2022-11-10T06:19:53.506Z,2.60
2022-11-10T06:22:20.096Z,2.35
2022-11-10T06:24:46.828Z,2.60
2022-11-10T06:27:13.189Z,2.42
2022-11-10T06:29:39.762Z,2.60
2022-11-10T06:32:06.144Z,3.35
2022-11-10T06:34:32.545Z,3.17
2022-11-10T06:36:58.989Z,3.53
2022-11-10T06:39:25.342Z,2.85
2022-11-10T06:41:51.753Z,3.08
2022-11-10T06:44:18.163Z,3.33
2022-11-10T06:46:44.487Z,2.75
2022-11-10T06:49:10.823Z,2.30
2022-11-10T06:51:37.370Z,2.72
2022-11-10T06:54:03.799Z,2.45
2022-11-10T06:56:30.150Z,3.42
2022-11-10T06:58:56.534Z,2.00
2022-11-10T07:01:26.446Z,2.53
2022-11-10T07:04:18.295Z,2.55
2022-11-10T07:06:43.777Z,2.53
2022-11-10T07:09:10.132Z,2.20
2022-11-10T07:11:36.437Z,1.88
2022-11-10T07:14:02.913Z,2.30
2022-11-10T07:16:29.276Z,2.83
2022-11-10T07:18:55.562Z,2.30
2022-11-10T07:21:21.898Z,2.03
2022-11-10T07:23:48.243Z,2.35
2022-11-10T07:26:14.642Z,2.03
2022-11-10T07:28:42.717Z,2.15
2022-11-10T07:31:09.026Z,2.28
2022-11-10T07:33:35.321Z,2.40
2022-11-10T07:36:03.476Z,2.30
2022-11-10T07:38:29.784Z,2.40
2022-11-10T07:40:56.308Z,1.83
2022-11-10T07:43:24.156Z,2.03
2022-11-10T07:45:51.115Z,2.30
2022-11-10T07:48:17.626Z,2.15
2022-11-10T07:50:44.265Z,2.22
2022-11-10T07:53:11.855Z,2.22
2022-11-10T07:55:39.003Z,2.53
2022-11-10T07:58:06.000Z,1.80
2022-11-10T08:00:32.777Z,2.58
2022-11-10T08:03:03.268Z,2.42
2022-11-10T08:05:29.704Z,2.65
2022-11-10T08:07:56.089Z,3.05
2022-11-10T08:10:22.582Z,2.20
2022-11-10T08:12:56.943Z,2.20
2022-11-10T08:15:23.765Z,2.33
2022-11-10T08:17:50.230Z,3.20
2022-11-10T08:20:16.986Z,2.80
2022-11-10T08:22:43.381Z,1.77
2022-11-10T08:25:10.213Z,3.25
2022-11-10T08:27:36.651Z,2.45
2022-11-10T08:30:03.053Z,2.38
2022-11-10T08:32:29.342Z,2.47
2022-11-10T08:34:55.816Z,2.60
2022-11-10T08:37:22.172Z,2.05
2022-11-10T08:39:48.606Z,1.77
2022-11-10T08:42:15.324Z,2.10
2022-11-10T08:44:41.693Z,2.35
2022-11-10T08:47:08.022Z,2.15
2022-11-10T08:49:34.588Z,2.45
2022-11-10T08:52:01.016Z,2.25
2022-11-10T08:54:27.335Z,2.10
2022-11-10T08:56:54.076Z,2.08
2022-11-10T08:59:20.445Z,2.63
2022-11-10T09:01:46.887Z,2.28
2022-11-10T09:04:15.801Z,2.17
2022-11-10T09:06:42.273Z,2.80
2022-11-10T09:09:08.612Z,2.58
2022-11-10T09:11:35.009Z,2.33
2022-11-10T09:14:01.870Z,2.33
2022-11-10T09:16:28.159Z,2.80
2022-11-10T09:18:54.487Z,2.53
2022-11-10T09:21:20.838Z,2.72
2022-11-10T09:23:48.047Z,2.25
2022-11-10T09:26:14.449Z,2.20
2022-11-10T09:28:40.794Z,2.20
2022-11-10T09:31:07.431Z,1.77
2022-11-10T09:33:33.841Z,1.65
2022-11-10T09:36:02.061Z,2.10
2022-11-10T09:38:28.394Z,2.50
2022-11-10T09:40:54.780Z,2.78
2022-11-10T09:43:31.740Z,2.85
2022-11-10T09:45:59.794Z,1.80
2022-11-10T09:48:27.566Z,2.47
2022-11-10T09:51:02.625Z,2.10
2022-11-10T09:53:37.282Z,1.95
2022-11-10T09:56:05.078Z,1.63
2022-11-10T09:58:51.803Z,2.10
2022-11-10T10:01:27.242Z,1.48
2022-11-10T10:04:00.587Z,1.88
2022-11-10T10:06:33.897Z,1.92
2022-11-10T10:09:25.741Z,2.53
2022-11-10T10:11:56.748Z,2.08
2022-11-10T10:14:23.077Z,2.22
2022-11-10T10:17:12.439Z,2.00
2022-11-10T10:19:44.799Z,2.08
2022-11-10T10:22:31.895Z,1.40
2022-11-10T10:25:02.039Z,1.55
2022-11-10T10:27:29.033Z,1.50
2022-11-10T10:29:55.504Z,1.40
2022-11-10T10:32:22.610Z,1.67
2022-11-10T10:34:48.902Z,1.75
2022-11-10T10:37:18.366Z,1.83
2022-11-10T10:39:46.623Z,2.05
2022-11-10T10:42:19.597Z,1.70
2022-11-10T10:45:04.735Z,2.38
2022-11-10T10:47:40.179Z,1.85
2022-11-10T10:50:35.947Z,2.22
2022-11-10T10:53:18.988Z,1.40
2022-11-10T10:55:47.044Z,2.20
2022-11-10T10:58:19.759Z,2.08
2022-11-10T11:00:47.725Z,1.48
2022-11-10T11:03:21.905Z,1.80
2022-11-10T11:05:59.654Z,1.40
2022-11-10T11:08:27.066Z,1.67
2022-11-10T11:10:53.465Z,1.83
2022-11-10T11:13:24.153Z,1.30
2022-11-10T11:16:04.592Z,1.40
2022-11-10T11:18:32.419Z,1.80
2022-11-10T11:21:02.394Z,1.95
2022-11-10T11:23:54.999Z,1.50
2022-11-10T11:26:36.651Z,2.00
2022-11-10T11:29:06.064Z,2.38
2022-11-10T11:31:42.906Z,1.90
2022-11-10T11:34:32.001Z,2.28
2022-11-10T11:37:09.801Z,1.50
2022-11-10T11:39:47.639Z,2.05
2022-11-10T11:42:13.899Z,1.63
2022-11-10T11:44:45.687Z,1.42
2022-11-10T11:47:37.543Z,1.58
2022-11-10T11:50:03.808Z,1.95
2022-11-10T11:52:30.084Z,2.20
2022-11-10T11:54:59.311Z,2.10
2022-11-10T11:57:34.490Z,2.13
2022-11-10T12:00:08.111Z,1.90
2022-11-10T12:02:34.748Z,1.77
2022-11-10T12:05:10.595Z,1.23
2022-11-10T12:07:50.127Z,1.65
2022-11-10T12:10:19.332Z,1.80
2022-11-10T12:13:04.256Z,1.85
2022-11-10T12:15:40.639Z,1.63
2022-11-10T12:18:13.332Z,2.05
2022-11-10T12:20:44.905Z,1.17
2022-11-10T12:23:20.145Z,1.20
2022-11-10T12:25:56.397Z,1.13
2022-11-10T12:28:34.405Z,1.75
2022-11-10T12:31:02.627Z,1.23
2022-11-10T12:33:33.766Z,0.98
2022-11-10T12:36:01.142Z,1.67
2022-11-10T12:38:35.087Z,1.30
2022-11-10T12:41:07.932Z,1.13
2022-11-10T12:43:46.239Z,0.82
2022-11-10T12:46:12.819Z,1.30
2022-11-10T12:49:02.282Z,1.55
2022-11-10T12:51:31.357Z,1.02
2022-11-10T12:53:57.712Z,1.15
2022-11-10T12:56:45.888Z,1.08
2022-11-10T12:59:21.165Z,1.50
2022-11-10T13:01:52.710Z,1.88
2022-11-10T13:04:19.930Z,1.50
2022-11-10T13:06:51.743Z,1.38
2022-11-10T13:09:22.576Z,0.90
2022-11-10T13:12:15.832Z,1.20
2022-11-10T13:14:42.725Z,1.00
2022-11-10T13:17:31.867Z,1.38
2022-11-10T13:20:09.548Z,1.05
2022-11-10T13:22:47.164Z,1.50
2022-11-10T13:25:32.202Z,1.40
2022-11-10T13:27:58.563Z,1.10
2022-11-10T13:30:57.243Z,1.10
2022-11-10T13:33:26.310Z,1.20
2022-11-10T13:35:55.140Z,1.80
2022-11-10T13:38:55.767Z,1.13
2022-11-10T13:41:24.763Z,1.17
2022-11-10T13:43:55.295Z,1.38
2022-11-10T13:46:41.906Z,1.77
2022-11-10T13:49:27.101Z,1.35
2022-11-10T13:52:06.322Z,1.40
2022-11-10T13:54:35.731Z,1.50
2022-11-10T13:57:31.313Z,1.60
2022-11-10T14:00:01.356Z,1.40
2022-11-10T14:02:34.141Z,1.60
2022-11-10T14:05:01.135Z,1.52
2022-11-10T14:07:35.060Z,1.70
2022-11-10T14:10:05.606Z,1.90
2022-11-10T14:12:46.538Z,1.70
2022-11-10T14:15:16.132Z,1.83
2022-11-10T14:17:50.267Z,1.88
2022-11-10T14:20:42.603Z,2.45
2022-11-10T14:25:37.455Z,1.63
2022-11-10T14:28:17.379Z,2.00
2022-11-10T14:30:50.233Z,1.40
2022-11-10T14:33:16.587Z,1.42
2022-11-10T14:36:05.776Z,1.80
2022-11-10T14:38:37.134Z,1.88
2022-11-10T14:41:04.855Z,2.40
2022-11-10T14:43:31.298Z,1.70
2022-11-10T14:45:57.993Z,1.55
2022-11-10T14:48:25.859Z,1.58
2022-11-10T14:50:53.112Z,1.25
2022-11-10T14:53:22.181Z,1.90
2022-11-10T14:55:54.475Z,1.52
2022-11-10T14:58:26.207Z,1.27
2022-11-10T15:00:53.390Z,1.40
2022-11-10T15:03:30.774Z,1.60
2022-11-10T15:05:57.184Z,1.65
2022-11-10T15:08:23.884Z,1.40
2022-11-10T15:10:52.934Z,1.48
2022-11-10T15:13:36.407Z,1.75
2022-11-10T15:16:21.278Z,1.40
2022-11-10T15:18:49.049Z,1.38
2022-11-10T15:21:19.048Z,1.20
2022-11-10T15:23:47.431Z,0.80
2022-11-10T15:26:19.646Z,1.20
2022-11-10T15:28:46.566Z,0.65
2022-11-10T15:31:21.588Z,0.98
2022-11-10T15:33:49.399Z,0.80
2022-11-10T15:36:25.016Z,0.80
2022-11-10T15:39:23.362Z,1.00
2022-11-10T15:41:50.715Z,1.85
2022-11-10T15:44:21.350Z,1.20
2022-11-10T15:46:50.734Z,1.05
2022-11-10T15:49:22.282Z,1.30
2022-11-10T15:51:52.759Z,1.10
2022-11-10T15:54:21.189Z,0.88
2022-11-10T15:56:47.724Z,1.60
2022-11-10T15:59:14.036Z,0.90
2022-11-10T16:01:40.476Z,0.88
2022-11-10T16:04:12.818Z,1.50
2022-11-10T16:06:39.491Z,2.10
2022-11-10T16:09:06.604Z,1.20
2022-11-10T16:11:35.679Z,1.08
2022-11-10T16:14:03.248Z,0.93
2022-11-10T16:16:30.577Z,1.00
2022-11-10T16:18:57.099Z,0.95
2022-11-10T16:21:24.435Z,0.90
2022-11-10T16:23:51.332Z,0.88
2022-11-10T16:26:18.863Z,0.70
2022-11-10T16:28:47.681Z,0.93
2022-11-10T16:31:15.402Z,1.02
2022-11-10T16:33:41.810Z,1.35
2022-11-10T16:36:24.220Z,1.40
2022-11-10T16:38:51.006Z,1.20
2022-11-10T16:41:17.347Z,1.23
2022-11-10T16:43:43.670Z,1.88
2022-11-10T16:46:36.273Z,1.95
2022-11-10T16:49:03.959Z,2.20
2022-11-10T16:51:45.596Z,2.88
2022-11-10T16:54:14.792Z,2.25
2022-11-10T16:56:41.255Z,1.85
2022-11-10T16:59:07.604Z,2.42
2022-11-10T17:01:34.923Z,3.40
2022-11-10T17:04:04.463Z,3.22
2022-11-10T17:06:31.049Z,3.78
2022-11-10T17:09:07.812Z,3.42
2022-11-10T17:11:34.178Z,3.00
2022-11-10T17:14:00.494Z,2.45
2022-11-10T17:16:32.381Z,3.30
2022-11-10T17:18:59.966Z,2.65
2022-11-10T17:21:32.529Z,2.13
2022-11-10T17:23:59.988Z,2.50
2022-11-10T17:26:26.426Z,2.30
2022-11-10T17:28:53.225Z,3.10
2022-11-10T17:31:19.538Z,3.28
2022-11-10T17:33:45.993Z,2.45
2022-11-10T17:36:13.823Z,3.13
2022-11-10T17:38:40.561Z,1.92
2022-11-10T17:41:09.111Z,2.05
2022-11-10T17:43:35.906Z,1.63
2022-11-10T17:46:02.231Z,1.48
2022-11-10T17:48:28.546Z,2.10
2022-11-10T17:50:54.824Z,1.90
2022-11-10T17:53:23.276Z,2.08
2022-11-10T17:55:50.100Z,2.03
2022-11-10T17:58:17.067Z,2.38
2022-11-10T18:00:44.765Z,2.33
2022-11-10T18:03:15.089Z,1.67
2022-11-10T18:05:41.588Z,3.65
2022-11-10T18:08:07.992Z,1.95
2022-11-10T18:10:34.280Z,2.42
2022-11-10T18:13:00.581Z,3.10
2022-11-10T18:15:26.981Z,3.13
2022-11-10T18:17:58.486Z,3.30
2022-11-10T18:20:26.384Z,2.47
2022-11-10T18:22:52.836Z,2.97
2022-11-10T18:25:19.228Z,2.67
2022-11-10T18:27:45.512Z,1.92
2022-11-10T18:30:12.207Z,2.95
2022-11-10T18:32:38.496Z,2.60
2022-11-10T18:35:04.847Z,2.72
2022-11-10T18:37:33.010Z,3.25
2022-11-10T18:40:01.979Z,2.55
2022-11-10T18:42:28.673Z,2.03
2022-11-10T18:44:55.316Z,2.35
2022-11-10T18:47:21.649Z,2.28
2022-11-10T18:49:47.933Z,1.90
2022-11-10T18:52:14.328Z,1.55
2022-11-10T18:54:40.689Z,2.90
2022-11-10T18:57:07.039Z,2.80
2022-11-10T18:59:33.513Z,3.33
2022-11-10T19:01:59.845Z,1.83
2022-11-10T19:04:26.191Z,2.22
2022-11-10T19:06:52.612Z,2.00
2022-11-10T19:09:18.963Z,1.70
2022-11-10T19:11:45.262Z,1.42
2022-11-10T19:14:11.591Z,1.20
2022-11-10T19:16:37.888Z,1.80
2022-11-10T19:19:04.288Z,1.50
2022-11-10T19:21:30.691Z,2.05
2022-11-10T19:23:57.591Z,1.77
2022-11-10T19:26:24.641Z,2.22
2022-11-10T19:28:53.316Z,2.83
2022-11-10T19:31:22.440Z,2.08
2022-11-10T19:33:49.765Z,2.90
2022-11-10T19:36:17.530Z,2.28
2022-11-10T19:38:44.600Z,1.90
2022-11-10T19:41:15.370Z,2.67
2022-11-10T19:43:47.140Z,2.70
2022-11-10T19:46:15.302Z,2.17
2022-11-10T19:48:41.998Z,1.75
2022-11-10T19:51:09.287Z,1.60
2022-11-10T19:53:35.613Z,1.20
2022-11-10T19:56:03.130Z,1.15
2022-11-10T19:58:30.246Z,1.65
2022-11-10T20:00:56.878Z,2.20
2022-11-10T20:03:23.577Z,3.00
2022-11-10T20:05:57.395Z,3.58
2022-11-10T20:08:23.702Z,3.53
2022-11-10T20:10:50.009Z,5.32
2022-11-10T20:13:16.347Z,4.35
2022-11-10T20:15:43.419Z,2.88
2022-11-10T20:18:10.460Z,2.65
2022-11-10T20:20:37.945Z,1.80
2022-11-10T20:23:05.396Z,2.53
2022-11-10T20:25:32.429Z,2.72
2022-11-10T20:28:01.261Z,1.77
2022-11-10T20:30:27.564Z,2.90
2022-11-10T20:32:53.866Z,2.60
2022-11-10T20:35:20.272Z,1.95
2022-11-10T20:37:46.709Z,1.80
2022-11-10T20:40:42.465Z,1.17
2022-11-10T20:42:59.900Z,1.30
2022-11-10T20:45:26.195Z,0.90
2022-11-10T20:47:52.484Z,0.70
2022-11-10T20:50:23.971Z,0.60
2022-11-10T20:55:18.512Z,1.60
2022-11-10T20:57:45.102Z,2.60
2022-11-10T21:00:11.737Z,1.77
2022-11-10T21:02:38.072Z,2.45
2022-11-10T21:05:04.900Z,2.10
2022-11-10T21:07:31.343Z,2.47
2022-11-10T21:09:57.684Z,2.60
2022-11-10T21:12:43.002Z,2.05
2022-11-10T21:15:10.098Z,2.47
2022-11-10T21:17:41.540Z,1.60
2022-11-10T21:20:10.703Z,1.13
2022-11-10T21:22:37.139Z,0.90
2022-11-10T21:25:03.708Z,0.55
2022-11-10T21:27:30.209Z,0.50
2022-11-10T21:29:56.543Z,0.50
2022-11-10T21:32:23.020Z,0.43
2022-11-10T21:34:49.368Z,0.47
2022-11-10T21:37:15.706Z,0.50
2022-11-10T21:39:43.890Z,0.60
2022-11-10T21:42:10.698Z,0.30
2022-11-10T21:44:37.298Z,0.40
2022-11-10T21:47:03.631Z,0.40
2022-11-10T21:49:30.082Z,0.60
2022-11-10T21:51:56.452Z,0.80
2022-11-10T21:54:22.800Z,1.40
2022-11-10T21:56:49.388Z,2.28
2022-11-10T21:59:15.709Z,1.75
2022-11-10T22:01:42.163Z,1.92
2022-11-10T22:04:08.671Z,2.13
2022-11-10T22:06:53.656Z,2.53
2022-11-10T22:09:40.006Z,3.80
2022-11-10T22:12:26.575Z,3.00
2022-11-10T22:15:11.500Z,2.63
2022-11-10T22:17:56.469Z,2.25
2022-11-10T22:20:22.849Z,2.08
2022-11-10T22:22:50.222Z,3.25
2022-11-10T22:25:16.582Z,2.42
2022-11-10T22:27:42.964Z,3.17
2022-11-10T22:30:09.652Z,1.80
2022-11-10T22:32:35.956Z,1.58
2022-11-10T22:35:02.296Z,1.08
2022-11-10T22:37:32.976Z,0.63
2022-11-10T22:40:18.816Z,0.73
2022-11-10T22:43:03.843Z,0.50
2022-11-10T22:45:30.387Z,0.50
2022-11-10T22:48:15.347Z,0.73
2022-11-10T22:50:41.750Z,0.70
2022-11-10T22:53:08.097Z,0.50
2022-11-10T22:55:34.409Z,0.50
2022-11-10T22:58:00.838Z,0.50
2022-11-10T23:00:27.170Z,0.40
2022-11-10T23:02:53.633Z,0.45
2022-11-10T23:05:20.037Z,0.38
2022-11-10T23:07:46.388Z,0.30
2022-11-10T23:10:12.831Z,0.30
2022-11-10T23:12:39.208Z,0.30
2022-11-10T23:15:05.750Z,0.30
2022-11-10T23:17:32.281Z,0.50
2022-11-10T23:19:58.690Z,0.90
2022-11-10T23:22:24.958Z,0.95
2022-11-10T23:24:56.787Z,1.40
2022-11-10T23:27:23.638Z,2.00
2022-11-10T23:29:49.999Z,3.22
2022-11-10T23:32:16.296Z,2.40
2022-11-10T23:34:42.837Z,1.70
2022-11-10T23:37:09.128Z,1.40
2022-11-10T23:39:35.406Z,1.30
2022-11-10T23:42:01.837Z,1.42
2022-11-10T23:44:28.128Z,1.20
2022-11-10T23:46:54.408Z,1.13
2022-11-10T23:49:20.809Z,1.30
2022-11-10T23:51:47.090Z,1.20
2022-11-10T23:54:13.571Z,1.23
2022-11-10T23:56:39.904Z,1.30
2022-11-10T23:59:06.187Z,1.08
